createdAt,value
2023-04-22T00:01:27.041Z,99.90
2023-04-22T00:03:55.099Z,99.90
2023-04-22T00:06:22.828Z,99.90
2023-04-22T00:08:50.317Z,99.90
2023-04-22T00:11:17.740Z,99.90
2023-04-22T00:13:45.305Z,99.90
2023-04-22T00:16:12.827Z,99.90
2023-04-22T00:18:40.624Z,99.90
2023-04-22T00:21:08.162Z,99.90
2023-04-22T00:23:35.642Z,99.90
2023-04-22T00:26:03.314Z,99.90
2023-04-22T00:28:30.706Z,99.90
2023-04-22T00:30:58.792Z,99.90
2023-04-22T00:33:26.309Z,99.90
2023-04-22T00:35:54.689Z,99.90
2023-04-22T00:38:23.403Z,99.90
2023-04-22T00:40:50.950Z,99.90
2023-04-22T00:43:19.174Z,99.90
2023-04-22T00:45:49.059Z,99.90
2023-04-22T00:48:16.578Z,99.90
2023-04-22T00:50:44.125Z,99.90
2023-04-22T00:53:12.876Z,99.90
2023-04-22T00:55:40.465Z,99.90
2023-04-22T00:58:08.551Z,99.90
2023-04-22T01:00:36.370Z,99.90
2023-04-22T01:03:05.231Z,99.90
2023-04-22T01:05:33.395Z,99.90
2023-04-22T01:08:01.457Z,99.90
2023-04-22T01:10:29.827Z,99.90
2023-04-22T01:12:57.311Z,99.90
2023-04-22T01:15:24.830Z,99.90
2023-04-22T01:17:53.571Z,99.90
2023-04-22T01:20:22.817Z,99.90
2023-04-22T01:22:54.722Z,99.90
2023-04-22T01:25:22.448Z,99.90
2023-04-22T01:27:50.747Z,99.90
2023-04-22T01:30:18.409Z,99.90
2023-04-22T01:32:46.782Z,99.90
2023-04-22T01:35:14.528Z,99.90
2023-04-22T01:37:42.201Z,99.90
2023-04-22T01:40:11.284Z,99.90
2023-04-22T01:42:39.293Z,99.90
2023-04-22T01:45:07.630Z,99.90
2023-04-22T01:47:35.300Z,99.90
2023-04-22T01:50:02.847Z,99.90
2023-04-22T01:52:31.005Z,99.90
2023-04-22T01:54:58.880Z,99.90
2023-04-22T01:57:26.387Z,99.90
2023-04-22T01:59:53.887Z,99.90
2023-04-22T02:02:23.021Z,99.90
2023-04-22T02:04:50.718Z,99.90
2023-04-22T02:07:18.724Z,99.90
2023-04-22T02:09:47.766Z,99.90
2023-04-22T02:12:16.393Z,99.90
2023-04-22T02:14:44.020Z,99.90
2023-04-22T02:17:11.711Z,99.90
2023-04-22T02:19:40.562Z,99.90
2023-04-22T02:22:08.261Z,99.90
2023-04-22T02:24:35.915Z,99.90
2023-04-22T02:27:03.447Z,99.90
2023-04-22T02:29:32.301Z,99.90
2023-04-22T02:32:00.661Z,99.90
2023-04-22T02:34:29.493Z,99.90
2023-04-22T02:36:57.000Z,99.90
2023-04-22T02:39:25.802Z,99.90
2023-04-22T02:41:53.397Z,99.90
2023-04-22T02:44:21.118Z,99.90
2023-04-22T02:46:49.537Z,99.90
2023-04-22T02:49:17.885Z,99.90
2023-04-22T02:51:46.228Z,99.90
2023-04-22T02:54:13.833Z,99.90
2023-04-22T02:56:41.364Z,99.90
2023-04-22T02:59:08.970Z,99.90
2023-04-22T03:01:36.472Z,99.90
2023-04-22T03:04:07.013Z,99.90
2023-04-22T03:06:34.709Z,99.90
2023-04-22T03:09:02.328Z,99.90
2023-04-22T03:11:29.850Z,99.90
2023-04-22T03:13:57.325Z,99.90
2023-04-22T03:16:24.889Z,99.90
2023-04-22T03:18:55.020Z,99.90
2023-04-22T03:21:22.758Z,99.90
2023-04-22T03:23:51.379Z,99.90
2023-04-22T03:26:18.969Z,99.90
2023-04-22T03:28:46.583Z,99.90
2023-04-22T03:31:14.083Z,99.90
2023-04-22T03:33:41.612Z,99.90
2023-04-22T03:36:18.323Z,99.90
2023-04-22T03:38:46.332Z,99.90
2023-04-22T03:41:14.816Z,99.90
2023-04-22T03:43:46.503Z,99.90
2023-04-22T03:46:14.026Z,99.90
2023-04-22T03:48:46.598Z,99.90
2023-04-22T03:51:25.731Z,99.90
2023-04-22T03:53:53.992Z,99.90
2023-04-22T03:56:24.534Z,99.90
2023-04-22T03:58:54.475Z,99.90
2023-04-22T04:01:23.423Z,99.90
2023-04-22T04:03:53.725Z,99.90
2023-04-22T04:06:22.715Z,99.90
2023-04-22T04:08:50.301Z,99.90
2023-04-22T04:11:17.800Z,99.90
2023-04-22T04:13:45.693Z,99.90
2023-04-22T04:16:25.952Z,99.90
2023-04-22T04:19:00.937Z,99.90
2023-04-22T04:21:29.415Z,99.90
2023-04-22T04:23:57.016Z,99.90
2023-04-22T04:26:28.107Z,99.90
2023-04-22T04:29:02.857Z,99.90
2023-04-22T04:31:30.474Z,99.90
2023-04-22T04:34:00.435Z,99.90
2023-04-22T04:36:32.846Z,99.90
2023-04-22T04:39:11.584Z,99.90
2023-04-22T04:41:41.200Z,99.90
2023-04-22T04:44:09.179Z,99.90
2023-04-22T04:46:38.714Z,99.90
2023-04-22T04:49:12.921Z,99.90
2023-04-22T04:51:56.614Z,99.90
2023-04-22T04:54:24.430Z,99.90
2023-04-22T04:56:52.702Z,99.90
2023-04-22T04:59:20.454Z,99.90
2023-04-22T05:01:48.640Z,99.90
2023-04-22T05:04:16.386Z,99.90
2023-04-22T05:06:44.900Z,99.90
2023-04-22T05:09:23.655Z,99.90
2023-04-22T05:11:51.998Z,99.90
2023-04-22T05:14:21.762Z,99.90
2023-04-22T05:16:49.401Z,99.90
2023-04-22T05:19:16.890Z,99.90
2023-04-22T05:21:45.569Z,99.90
2023-04-22T05:24:13.216Z,99.90
2023-04-22T05:26:41.587Z,99.90
2023-04-22T05:29:14.996Z,99.90
2023-04-22T05:31:42.751Z,99.90
2023-04-22T05:34:11.879Z,99.90
2023-04-22T05:36:39.666Z,99.90
2023-04-22T05:39:08.364Z,99.90
2023-04-22T05:41:36.331Z,99.90
2023-04-22T05:44:07.906Z,99.90
2023-04-22T05:46:36.570Z,99.90
2023-04-22T05:49:04.162Z,99.90
2023-04-22T05:51:57.753Z,99.90
2023-04-22T05:54:30.168Z,99.90
2023-04-22T05:56:58.489Z,99.90
2023-04-22T05:59:26.543Z,99.90
2023-04-22T06:01:54.302Z,99.90
2023-04-22T06:04:21.982Z,99.90
2023-04-22T06:06:53.650Z,99.90
2023-04-22T06:09:21.715Z,99.90
2023-04-22T06:11:49.440Z,99.90
2023-04-22T06:14:16.885Z,99.90
2023-04-22T06:16:45.848Z,99.90
2023-04-22T06:19:13.926Z,99.90
2023-04-22T06:21:42.547Z,99.90
2023-04-22T06:24:10.863Z,99.90
2023-04-22T06:26:38.535Z,99.90
2023-04-22T06:29:06.190Z,99.20
2023-04-22T06:31:34.680Z,98.50
2023-04-22T06:34:02.201Z,96.60
2023-04-22T06:36:30.904Z,95.30
2023-04-22T06:39:03.449Z,98.10
2023-04-22T06:41:44.312Z,98.70
2023-04-22T06:44:27.662Z,99.80
2023-04-22T06:47:13.332Z,99.90
2023-04-22T06:49:49.155Z,99.90
2023-04-22T06:52:29.849Z,99.90
2023-04-22T06:54:59.642Z,99.90
2023-04-22T06:57:27.129Z,99.90
2023-04-22T06:59:54.697Z,99.90
2023-04-22T07:02:24.238Z,99.80
2023-04-22T07:04:51.814Z,98.00
2023-04-22T07:07:19.396Z,96.20
2023-04-22T07:09:46.862Z,97.70
2023-04-22T07:12:14.509Z,96.30
2023-04-22T07:14:45.692Z,98.10
2023-04-22T07:17:13.228Z,99.90
2023-04-22T07:19:41.084Z,99.90
2023-04-22T07:22:09.057Z,98.10
2023-04-22T07:24:37.457Z,96.70
2023-04-22T07:27:04.947Z,94.40
2023-04-22T07:29:33.439Z,91.90
2023-04-22T07:32:01.025Z,91.50
2023-04-22T07:34:28.508Z,90.50
2023-04-22T07:36:56.107Z,92.10
2023-04-22T07:39:23.551Z,87.20
2023-04-22T07:41:51.307Z,88.30
2023-04-22T07:44:21.713Z,85.20
2023-04-22T07:46:50.286Z,82.40
2023-04-22T07:49:17.921Z,89.40
2023-04-22T07:51:45.789Z,81.30
2023-04-22T07:54:13.239Z,84.60
2023-04-22T07:56:40.796Z,80.20
2023-04-22T07:59:08.290Z,79.80
2023-04-22T08:01:35.980Z,77.80
2023-04-22T08:04:03.632Z,78.00
2023-04-22T08:06:31.904Z,74.00
2023-04-22T08:08:59.416Z,76.80
2023-04-22T08:11:26.931Z,76.90
2023-04-22T08:13:55.160Z,76.00
2023-04-22T08:16:23.013Z,76.50
2023-04-22T08:18:52.098Z,71.50
2023-04-22T08:21:19.639Z,72.40
2023-04-22T08:23:47.821Z,74.30
2023-04-22T08:26:16.972Z,77.00
2023-04-22T08:28:44.521Z,75.90
2023-04-22T08:31:13.034Z,73.30
2023-04-22T08:33:41.773Z,74.90
2023-04-22T08:36:10.988Z,74.80
2023-04-22T08:38:38.617Z,74.60
2023-04-22T08:41:07.195Z,73.00
2023-04-22T08:43:35.528Z,73.20
2023-04-22T08:46:03.027Z,72.30
2023-04-22T08:48:32.049Z,74.70
2023-04-22T08:51:00.283Z,76.90
2023-04-22T08:53:27.805Z,76.00
2023-04-22T08:55:56.930Z,83.30
2023-04-22T08:58:25.145Z,75.20
2023-04-22T09:00:56.155Z,71.50
2023-04-22T09:03:24.165Z,72.10
2023-04-22T09:05:52.867Z,74.80
2023-04-22T09:08:20.712Z,74.60
2023-04-22T09:10:48.633Z,76.60
2023-04-22T09:13:17.617Z,81.30
2023-04-22T09:15:45.254Z,77.40
2023-04-22T09:18:16.739Z,82.10
2023-04-22T09:20:44.384Z,87.30
2023-04-22T09:23:13.616Z,88.30
2023-04-22T09:25:41.897Z,87.20
2023-04-22T09:28:12.952Z,89.20
2023-04-22T09:30:40.615Z,91.00
2023-04-22T09:33:09.553Z,85.20
2023-04-22T09:35:41.543Z,88.30
2023-04-22T09:38:12.741Z,89.20
2023-04-22T09:40:44.466Z,89.50
2023-04-22T09:43:12.695Z,92.10
2023-04-22T09:45:42.329Z,91.00
2023-04-22T09:48:14.916Z,86.70
2023-04-22T09:50:48.141Z,86.40
2023-04-22T09:53:20.172Z,90.90
2023-04-22T09:55:51.059Z,86.20
2023-04-22T09:58:23.630Z,93.80
2023-04-22T10:00:56.917Z,91.70
2023-04-22T10:03:24.933Z,90.90
2023-04-22T10:05:52.614Z,85.70
2023-04-22T10:08:20.170Z,88.20
2023-04-22T10:10:48.119Z,89.70
2023-04-22T10:13:18.665Z,91.10
2023-04-22T10:15:52.015Z,83.10
2023-04-22T10:18:24.358Z,91.80
2023-04-22T10:20:53.329Z,88.80
2023-04-22T10:23:22.752Z,86.40
2023-04-22T10:25:56.959Z,90.70
2023-04-22T10:28:28.274Z,82.50
2023-04-22T10:30:56.156Z,84.60
2023-04-22T10:33:34.771Z,85.70
2023-04-22T10:36:08.663Z,83.60
2023-04-22T10:38:49.767Z,87.30
2023-04-22T10:41:22.334Z,77.10
2023-04-22T10:43:58.544Z,81.80
2023-04-22T10:46:36.968Z,89.10
2023-04-22T10:49:18.160Z,87.50
2023-04-22T10:51:58.511Z,80.50
2023-04-22T10:54:31.587Z,87.90
2023-04-22T10:57:12.662Z,85.10
2023-04-22T10:59:49.530Z,82.60
2023-04-22T11:02:19.435Z,84.10
2023-04-22T11:04:47.610Z,81.30
2023-04-22T11:07:22.899Z,81.30
2023-04-22T11:09:51.886Z,85.30
2023-04-22T11:12:42.284Z,77.20
2023-04-22T11:15:16.150Z,78.80
2023-04-22T11:17:50.349Z,85.50
2023-04-22T11:20:18.343Z,83.60
2023-04-22T11:22:51.918Z,81.90
2023-04-22T11:25:20.142Z,84.60
2023-04-22T11:27:48.008Z,91.90
2023-04-22T11:30:23.420Z,90.90
2023-04-22T11:32:59.652Z,88.30
2023-04-22T11:35:32.476Z,84.90
2023-04-22T11:38:04.794Z,83.70
2023-04-22T11:40:39.037Z,87.10
2023-04-22T11:43:09.675Z,82.20
2023-04-22T11:45:39.363Z,82.90
2023-04-22T11:48:08.697Z,90.90
2023-04-22T11:50:38.345Z,82.60
2023-04-22T11:53:20.955Z,90.30
2023-04-22T11:55:51.283Z,85.90
2023-04-22T11:58:24.281Z,92.20
2023-04-22T12:00:53.602Z,90.80
2023-04-22T12:03:29.387Z,86.90
2023-04-22T12:05:58.386Z,79.50
2023-04-22T12:08:31.602Z,81.40
2023-04-22T12:11:06.802Z,89.70
2023-04-22T12:13:45.470Z,90.90
2023-04-22T12:16:15.681Z,90.30
2023-04-22T12:18:56.103Z,87.40
2023-04-22T12:21:28.245Z,91.40
2023-04-22T12:24:04.898Z,82.40
2023-04-22T12:26:32.416Z,85.30
2023-04-22T12:29:00.891Z,85.20
2023-04-22T12:31:28.625Z,85.10
2023-04-22T12:33:56.638Z,82.50
2023-04-22T12:36:25.201Z,87.80
2023-04-22T12:38:53.048Z,90.80
2023-04-22T12:41:20.911Z,82.80
2023-04-22T12:43:48.607Z,83.20
2023-04-22T12:46:16.994Z,81.30
2023-04-22T12:48:44.508Z,84.70
2023-04-22T12:51:13.320Z,81.00
2023-04-22T12:53:41.121Z,83.50
2023-04-22T12:56:08.770Z,80.90
2023-04-22T12:58:36.293Z,79.70
2023-04-22T13:01:03.823Z,81.50
2023-04-22T13:03:31.500Z,84.10
2023-04-22T13:05:59.089Z,85.20
2023-04-22T13:08:27.774Z,82.70
2023-04-22T13:10:55.220Z,82.40
2023-04-22T13:13:22.658Z,77.30
2023-04-22T13:15:53.256Z,80.10
2023-04-22T13:18:22.873Z,78.50
2023-04-22T13:20:51.251Z,78.50
2023-04-22T13:23:21.498Z,78.70
2023-04-22T13:25:50.322Z,75.40
2023-04-22T13:28:18.003Z,76.60
2023-04-22T13:30:45.639Z,77.20
2023-04-22T13:33:13.130Z,76.30
2023-04-22T13:35:40.689Z,76.20
2023-04-22T13:38:08.143Z,76.90
2023-04-22T13:40:35.947Z,77.00
2023-04-22T13:43:04.359Z,79.00
2023-04-22T13:45:31.822Z,77.10
2023-04-22T13:47:59.355Z,81.40
2023-04-22T13:50:26.950Z,77.20
2023-04-22T13:52:54.699Z,75.70
2023-04-22T13:55:22.285Z,77.00
2023-04-22T13:57:51.854Z,78.70
2023-04-22T14:00:20.577Z,83.60
2023-04-22T14:02:48.332Z,74.40
2023-04-22T14:05:16.159Z,77.00
2023-04-22T14:07:43.732Z,75.20
2023-04-22T14:10:13.114Z,73.20
2023-04-22T14:12:40.707Z,74.30
2023-04-22T14:15:11.010Z,74.20
2023-04-22T14:17:39.904Z,74.40
2023-04-22T14:20:10.809Z,76.70
2023-04-22T14:22:38.316Z,74.40
2023-04-22T14:25:07.106Z,71.20
2023-04-22T14:27:34.710Z,70.90
2023-04-22T14:30:04.307Z,75.00
2023-04-22T14:32:33.692Z,71.60
2023-04-22T14:35:01.319Z,70.20
2023-04-22T14:37:28.827Z,69.00
2023-04-22T14:39:57.438Z,70.70
2023-04-22T14:42:25.727Z,71.90
2023-04-22T14:44:53.416Z,67.30
2023-04-22T14:47:20.953Z,70.00
2023-04-22T14:49:48.546Z,66.60
2023-04-22T14:52:16.288Z,69.00
2023-04-22T14:54:43.721Z,69.20
2023-04-22T14:57:12.361Z,66.10
2023-04-22T14:59:40.244Z,65.30
2023-04-22T15:02:15.839Z,68.60
2023-04-22T15:04:44.318Z,69.90
2023-04-22T15:07:11.994Z,67.50
2023-04-22T15:09:39.835Z,70.00
2023-04-22T15:12:07.666Z,67.90
2023-04-22T15:14:36.288Z,66.60
2023-04-22T15:17:04.840Z,65.90
2023-04-22T15:19:32.328Z,73.60
2023-04-22T15:21:59.768Z,66.10
2023-04-22T15:24:27.404Z,62.90
2023-04-22T15:26:55.319Z,68.90
2023-04-22T15:29:23.030Z,68.90
2023-04-22T15:31:51.906Z,72.80
2023-04-22T15:34:22.010Z,76.80
2023-04-22T15:36:49.611Z,70.40
2023-04-22T15:39:17.194Z,69.60
2023-04-22T15:41:44.660Z,71.40
2023-04-22T15:44:12.997Z,70.00
2023-04-22T15:46:40.581Z,71.60
2023-04-22T15:49:08.169Z,67.30
2023-04-22T15:51:35.779Z,66.70
2023-04-22T15:54:03.887Z,66.00
2023-04-22T15:56:33.024Z,67.60
2023-04-22T15:59:00.765Z,66.90
2023-04-22T16:01:28.605Z,67.70
2023-04-22T16:03:56.409Z,67.00
2023-04-22T16:06:23.995Z,67.10
2023-04-22T16:08:51.580Z,70.60
2023-04-22T16:11:19.191Z,68.10
2023-04-22T16:13:47.125Z,66.60
2023-04-22T16:16:14.668Z,66.60
2023-04-22T16:18:44.211Z,68.10
2023-04-22T16:21:12.081Z,67.70
2023-04-22T16:23:39.717Z,71.00
2023-04-22T16:26:07.529Z,69.20
2023-04-22T16:28:35.026Z,70.00
2023-04-22T16:31:02.679Z,69.20
2023-04-22T16:33:30.638Z,70.10
2023-04-22T16:35:58.147Z,67.90
2023-04-22T16:38:25.792Z,67.80
2023-04-22T16:40:54.507Z,68.80
2023-04-22T16:43:22.149Z,70.10
2023-04-22T16:45:49.707Z,69.80
2023-04-22T16:48:17.430Z,71.80
2023-04-22T16:50:44.947Z,72.90
2023-04-22T16:53:12.538Z,72.50
2023-04-22T16:55:41.453Z,74.40
2023-04-22T16:58:09.302Z,74.00
2023-04-22T17:00:37.309Z,73.50
2023-04-22T17:03:06.026Z,74.70
2023-04-22T17:05:33.641Z,75.70
2023-04-22T17:08:01.185Z,79.00
2023-04-22T17:10:28.951Z,80.80
2023-04-22T17:12:56.490Z,79.60
2023-04-22T17:15:24.184Z,80.90
2023-04-22T17:17:51.914Z,85.70
2023-04-22T17:20:19.520Z,88.90
2023-04-22T17:22:47.036Z,92.00
2023-04-22T17:25:14.500Z,93.30
2023-04-22T17:27:41.935Z,94.00
2023-04-22T17:30:09.755Z,90.90
2023-04-22T17:32:37.357Z,90.50
2023-04-22T17:35:05.189Z,91.70
2023-04-22T17:37:32.815Z,93.60
2023-04-22T17:40:00.462Z,97.00
2023-04-22T17:42:38.802Z,99.90
2023-04-22T17:45:12.772Z,99.90
2023-04-22T17:47:40.342Z,99.90
2023-04-22T17:50:08.444Z,99.90
2023-04-22T17:52:36.195Z,99.90
2023-04-22T17:55:03.852Z,99.90
2023-04-22T17:57:31.478Z,99.90
2023-04-22T17:59:58.976Z,99.90
2023-04-22T18:02:26.585Z,99.90
2023-04-22T18:04:54.363Z,99.90
2023-04-22T18:07:21.926Z,99.90
2023-04-22T18:09:49.641Z,99.90
2023-04-22T18:12:17.364Z,99.90
2023-04-22T18:14:45.128Z,99.90
2023-04-22T18:17:13.524Z,99.90
2023-04-22T18:19:41.657Z,99.90
2023-04-22T18:22:09.456Z,99.90
2023-04-22T18:24:36.950Z,99.90
2023-04-22T18:27:04.709Z,99.90
2023-04-22T18:29:32.300Z,99.90
2023-04-22T18:31:59.902Z,99.90
2023-04-22T18:34:28.973Z,99.90
2023-04-22T18:36:56.542Z,99.90
2023-04-22T18:39:23.996Z,99.90
2023-04-22T18:41:52.085Z,99.90
2023-04-22T18:44:20.442Z,99.90
2023-04-22T18:46:47.978Z,99.90
2023-04-22T18:49:15.422Z,99.90
2023-04-22T18:51:42.987Z,99.90
2023-04-22T18:54:10.735Z,99.90
2023-04-22T18:56:38.205Z,99.90
2023-04-22T18:59:08.532Z,99.90
2023-04-22T19:01:36.593Z,99.90
2023-04-22T19:04:04.260Z,99.90
2023-04-22T19:06:32.105Z,99.90
2023-04-22T19:08:59.515Z,99.90
2023-04-22T19:11:27.597Z,99.90
2023-04-22T19:13:55.182Z,99.90
2023-04-22T19:16:24.911Z,99.90
2023-04-22T19:18:53.743Z,99.90
2023-04-22T19:21:21.128Z,99.90
2023-04-22T19:23:52.643Z,99.90
2023-04-22T19:26:21.025Z,99.90
2023-04-22T19:28:49.004Z,99.90
2023-04-22T19:31:17.654Z,99.90
2023-04-22T19:33:45.195Z,99.90
2023-04-22T19:36:12.868Z,99.90
2023-04-22T19:38:40.470Z,99.90
2023-04-22T19:41:09.053Z,99.90
2023-04-22T19:43:37.838Z,99.90
2023-04-22T19:46:05.425Z,99.90
2023-04-22T19:48:33.590Z,99.90
2023-04-22T19:51:02.024Z,99.90
2023-04-22T19:53:31.269Z,99.90
2023-04-22T19:55:58.880Z,99.90
2023-04-22T19:58:28.330Z,99.90
2023-04-22T20:00:56.335Z,99.90
2023-04-22T20:03:25.033Z,99.90
2023-04-22T20:05:53.027Z,99.90
2023-04-22T20:08:25.873Z,99.90
2023-04-22T20:10:54.853Z,99.90
2023-04-22T20:13:22.686Z,99.90
2023-04-22T20:15:50.721Z,99.90
2023-04-22T20:18:18.593Z,99.90
2023-04-22T20:20:48.249Z,99.90
2023-04-22T20:23:17.442Z,99.90
2023-04-22T20:25:45.665Z,99.90
2023-04-22T20:28:13.610Z,99.90
2023-04-22T20:30:41.387Z,99.90
2023-04-22T20:33:12.189Z,99.90
2023-04-22T20:35:40.891Z,99.90
2023-04-22T20:38:12.388Z,99.90
2023-04-22T20:40:41.095Z,99.90
2023-04-22T20:43:08.699Z,99.90
2023-04-22T20:45:36.358Z,99.90
2023-04-22T20:48:04.069Z,99.90
2023-04-22T20:50:33.501Z,99.90
2023-04-22T20:53:02.142Z,99.90
2023-04-22T20:55:29.573Z,99.90
2023-04-22T20:57:57.131Z,99.90
2023-04-22T21:00:24.976Z,99.90
2023-04-22T21:02:54.025Z,99.90
2023-04-22T21:05:21.987Z,99.90
2023-04-22T21:07:52.382Z,99.90
2023-04-22T21:10:22.130Z,99.90
2023-04-22T21:12:49.830Z,99.90
2023-04-22T21:15:17.698Z,99.90
2023-04-22T21:17:51.882Z,99.90
2023-04-22T21:20:21.855Z,99.90
2023-04-22T21:22:50.069Z,99.90
2023-04-22T21:25:21.715Z,99.90
2023-04-22T21:27:49.476Z,99.90
2023-04-22T21:30:17.505Z,99.90
2023-04-22T21:32:45.139Z,99.90
2023-04-22T21:35:12.705Z,99.90
2023-04-22T21:37:40.879Z,99.90
2023-04-22T21:40:11.880Z,99.90
2023-04-22T21:42:39.437Z,99.90
2023-04-22T21:45:07.545Z,99.90
2023-04-22T21:47:35.226Z,99.90
2023-04-22T21:50:02.933Z,99.90
2023-04-22T21:52:30.519Z,99.90
2023-04-22T21:54:58.086Z,99.90
2023-04-22T21:57:25.753Z,99.90
2023-04-22T21:59:53.237Z,99.90
2023-04-22T22:02:20.999Z,99.90
2023-04-22T22:04:48.642Z,99.90
2023-04-22T22:07:17.523Z,99.90
2023-04-22T22:09:46.407Z,99.90
2023-04-22T22:12:15.504Z,99.90
2023-04-22T22:14:43.873Z,99.90
2023-04-22T22:17:11.744Z,99.90
2023-04-22T22:19:39.271Z,99.90
2023-04-22T22:22:06.858Z,99.90
2023-04-22T22:24:34.304Z,99.90
2023-04-22T22:27:01.981Z,99.90
2023-04-22T22:29:29.631Z,99.90
2023-04-22T22:31:57.226Z,99.90
2023-04-22T22:34:24.867Z,99.90
2023-04-22T22:36:52.646Z,99.90
2023-04-22T22:39:20.080Z,99.90
2023-04-22T22:41:47.539Z,99.90
2023-04-22T22:44:15.091Z,99.90
2023-04-22T22:46:43.176Z,99.90
2023-04-22T22:49:10.882Z,99.90
2023-04-22T22:51:38.489Z,99.90
2023-04-22T22:54:06.493Z,99.90
2023-04-22T22:56:34.032Z,99.90
2023-04-22T22:59:01.465Z,99.90
2023-04-22T23:01:29.034Z,99.90
2023-04-22T23:03:56.773Z,99.90
2023-04-22T23:06:24.339Z,99.90
2023-04-22T23:08:51.722Z,99.90
2023-04-22T23:11:19.253Z,99.90
2023-04-22T23:13:47.792Z,99.90
2023-04-22T23:16:15.618Z,99.90
2023-04-22T23:18:44.719Z,99.90
2023-04-22T23:21:12.473Z,99.90
2023-04-22T23:23:41.304Z,99.90
2023-04-22T23:26:09.132Z,99.90
2023-04-22T23:28:36.998Z,99.90
2023-04-22T23:31:06.815Z,99.90
2023-04-22T23:33:36.291Z,99.90
2023-04-22T23:36:07.213Z,99.90
2023-04-22T23:38:34.688Z,99.90
2023-04-22T23:41:02.177Z,99.90
2023-04-22T23:43:29.839Z,99.90
2023-04-22T23:45:57.397Z,99.90
2023-04-22T23:48:24.912Z,99.90
2023-04-22T23:50:52.494Z,99.90
2023-04-22T23:53:19.938Z,99.90
2023-04-22T23:55:47.890Z,99.90
2023-04-22T23:58:15.830Z,99.90
